createdAt,value
2023-01-23T00:00:49.422Z,8.75
2023-01-23T00:06:04.222Z,8.65
2023-01-23T00:11:13.432Z,8.95
2023-01-23T00:16:13.949Z,9.01
2023-01-23T00:21:17.187Z,9.03
2023-01-23T00:26:21.133Z,8.83
2023-01-23T00:31:32.035Z,8.79
2023-01-23T00:36:38.313Z,8.85
2023-01-23T00:41:38.897Z,8.78
2023-01-23T00:46:38.800Z,9.09
2023-01-23T00:51:38.562Z,9.14
2023-01-23T00:56:37.799Z,9.10
2023-01-23T01:01:39.466Z,8.87
2023-01-23T01:06:38.548Z,8.99
2023-01-23T01:11:42.012Z,8.84
2023-01-23T01:16:46.954Z,9.09
2023-01-23T01:21:47.871Z,8.87
2023-01-23T01:26:47.976Z,8.63
2023-01-23T01:31:48.610Z,8.79
2023-01-23T01:36:58.674Z,8.40
2023-01-23T01:42:08.916Z,8.53
2023-01-23T01:47:17.111Z,8.46
2023-01-23T01:52:19.429Z,8.40
2023-01-23T01:57:25.385Z,8.44
2023-01-23T02:02:34.013Z,8.52
2023-01-23T02:07:36.877Z,8.61
2023-01-23T02:12:38.827Z,8.60
2023-01-23T02:17:41.317Z,8.37
2023-01-23T02:23:10.945Z,8.50
2023-01-23T02:28:12.771Z,8.50
2023-01-23T02:33:34.997Z,8.30
2023-01-23T02:38:43.300Z,8.38
2023-01-23T02:43:44.321Z,8.56
2023-01-23T02:48:48.558Z,8.37
2023-01-23T02:53:49.886Z,8.28
2023-01-23T02:59:21.652Z,8.52
2023-01-23T03:04:23.764Z,8.23
2023-01-23T03:09:37.189Z,8.07
2023-01-23T03:14:46.748Z,8.09
2023-01-23T03:19:47.574Z,7.43
2023-01-23T03:24:54.076Z,7.64
2023-01-23T03:30:16.242Z,7.65
2023-01-23T03:35:22.775Z,7.52
2023-01-23T03:40:45.777Z,6.95
2023-01-23T03:45:52.086Z,7.08
2023-01-23T03:50:54.053Z,6.66
2023-01-23T03:55:54.247Z,6.53
2023-01-23T04:00:55.476Z,6.73
2023-01-23T04:05:59.447Z,6.41
2023-01-23T04:11:10.397Z,6.40
2023-01-23T04:16:11.730Z,6.15
2023-01-23T04:21:12.569Z,6.27
2023-01-23T04:26:14.493Z,6.22
2023-01-23T04:31:15.593Z,6.49
2023-01-23T04:36:45.217Z,5.94
2023-01-23T04:41:47.603Z,6.00
2023-01-23T04:47:14.643Z,6.14
2023-01-23T04:52:13.933Z,6.05
2023-01-23T04:57:21.519Z,5.98
2023-01-23T05:02:26.248Z,6.33
2023-01-23T05:07:25.135Z,5.87
2023-01-23T05:12:35.787Z,6.42
2023-01-23T05:17:36.443Z,5.94
2023-01-23T05:22:35.860Z,5.96
2023-01-23T05:27:50.288Z,6.22
2023-01-23T05:32:53.454Z,6.26
2023-01-23T05:37:55.676Z,6.29
2023-01-23T05:43:02.028Z,6.04
2023-01-23T05:48:03.242Z,5.66
2023-01-23T05:53:06.248Z,6.00
2023-01-23T05:58:15.910Z,6.09
2023-01-23T06:03:27.002Z,5.68
2023-01-23T06:08:47.466Z,5.65
2023-01-23T06:13:47.477Z,5.74
2023-01-23T06:18:48.003Z,5.60
2023-01-23T06:23:50.681Z,5.83
2023-01-23T06:28:51.208Z,5.72
2023-01-23T06:33:55.962Z,5.74
2023-01-23T06:51:36.041Z,5.78
2023-01-23T06:56:38.317Z,6.09
2023-01-23T07:01:40.819Z,6.16
2023-01-23T07:06:56.752Z,5.85
2023-01-23T07:11:56.381Z,5.72
2023-01-23T07:16:57.132Z,5.71
2023-01-23T07:21:57.588Z,5.82
2023-01-23T07:26:56.187Z,5.87
2023-01-23T07:31:58.338Z,5.56
2023-01-23T07:36:57.096Z,5.25
2023-01-23T07:42:06.214Z,5.71
2023-01-23T07:47:05.234Z,5.69
2023-01-23T07:52:17.864Z,5.77
2023-01-23T07:57:17.822Z,5.98
2023-01-23T08:02:16.211Z,6.32
2023-01-23T08:07:16.717Z,5.99
2023-01-23T08:12:18.442Z,5.99
2023-01-23T08:17:17.377Z,6.06
2023-01-23T08:22:15.731Z,6.01
2023-01-23T08:27:14.016Z,5.87
2023-01-23T08:32:12.727Z,5.62
2023-01-23T08:37:12.758Z,6.00
2023-01-23T08:42:13.502Z,5.99
2023-01-23T08:47:11.343Z,5.70
2023-01-23T08:52:13.119Z,5.79
2023-01-23T08:57:13.019Z,6.15
2023-01-23T09:02:13.179Z,6.45
2023-01-23T09:07:15.460Z,5.87
2023-01-23T09:12:13.101Z,5.98
2023-01-23T09:17:12.016Z,6.08
2023-01-23T09:22:16.843Z,6.13
2023-01-23T09:27:15.279Z,6.07
2023-01-23T09:32:14.487Z,6.10
2023-01-23T09:37:17.685Z,6.19
2023-01-23T09:42:20.536Z,5.99
2023-01-23T09:47:39.263Z,6.34
2023-01-23T09:53:15.660Z,6.77
2023-01-23T09:58:59.684Z,6.60
2023-01-23T10:04:03.720Z,6.56
2023-01-23T10:09:18.670Z,5.79
2023-01-23T10:14:20.180Z,6.33
2023-01-23T10:19:59.559Z,5.84
2023-01-23T10:24:58.558Z,5.55
2023-01-23T10:30:03.727Z,5.62
2023-01-23T10:35:05.825Z,5.38
2023-01-23T10:40:43.150Z,5.53
2023-01-23T10:45:45.237Z,5.36
2023-01-23T10:50:49.399Z,5.10
2023-01-23T10:55:48.379Z,5.35
2023-01-23T11:00:47.061Z,5.28
2023-01-23T11:05:56.493Z,5.24
2023-01-23T11:11:33.122Z,4.88
2023-01-23T11:16:31.761Z,4.98
2023-01-23T11:21:54.588Z,5.22
2023-01-23T11:27:17.213Z,4.88
2023-01-23T11:32:17.510Z,4.78
2023-01-23T11:37:23.130Z,4.49
2023-01-23T11:42:33.446Z,4.63
2023-01-23T11:47:50.573Z,5.11
2023-01-23T11:53:41.555Z,4.90
2023-01-23T11:59:09.863Z,5.09
2023-01-23T12:04:43.663Z,5.01
2023-01-23T12:09:59.714Z,4.82
2023-01-23T12:15:43.223Z,4.39
2023-01-23T12:21:04.583Z,4.54
2023-01-23T12:26:15.469Z,4.67
2023-01-23T12:31:44.163Z,4.71
2023-01-23T12:37:08.717Z,4.72
2023-01-23T12:42:21.883Z,4.60
2023-01-23T12:47:54.521Z,4.52
2023-01-23T12:53:04.297Z,4.60
2023-01-23T12:58:10.085Z,4.33
2023-01-23T13:03:25.888Z,4.31
2023-01-23T13:08:40.506Z,4.76
2023-01-23T13:14:17.091Z,4.50
2023-01-23T13:19:50.822Z,4.18
2023-01-23T13:25:17.503Z,4.45
2023-01-23T13:30:27.554Z,4.50
2023-01-23T13:35:50.399Z,4.25
2023-01-23T13:41:13.452Z,3.97
2023-01-23T14:20:24.494Z,4.12
2023-01-23T14:25:24.028Z,4.11
2023-01-23T14:30:54.306Z,4.31
2023-01-23T14:36:09.148Z,3.49
2023-01-23T14:41:11.011Z,3.41
2023-01-23T14:47:06.271Z,3.80
2023-01-23T14:52:08.087Z,3.70
2023-01-23T14:57:16.825Z,3.47
2023-01-23T15:16:02.065Z,3.72
2023-01-23T15:21:09.269Z,3.61
2023-01-23T15:26:41.006Z,3.92
2023-01-23T15:31:42.836Z,4.10
2023-01-23T15:37:08.274Z,3.54
2023-01-23T15:42:12.354Z,3.68
2023-01-23T15:47:10.782Z,3.56
2023-01-23T15:52:28.703Z,3.28
2023-01-23T15:57:29.724Z,3.11
2023-01-23T16:02:32.982Z,3.46
2023-01-23T16:07:39.979Z,3.17
2023-01-23T16:12:41.540Z,3.23
2023-01-23T16:17:43.326Z,2.90
2023-01-23T16:28:18.220Z,3.48
2023-01-23T16:33:17.422Z,3.43
2023-01-23T16:38:28.813Z,3.10
2023-01-23T16:43:27.547Z,3.29
2023-01-23T16:48:29.340Z,3.16
2023-01-23T16:53:32.860Z,2.91
2023-01-23T16:58:41.813Z,3.24
2023-01-23T17:03:41.480Z,2.87
2023-01-23T17:08:39.871Z,2.83
2023-01-23T17:13:40.388Z,2.88
2023-01-23T17:18:39.673Z,3.11
2023-01-23T17:23:41.758Z,3.52
2023-01-23T17:28:39.133Z,3.42
2023-01-23T17:33:39.037Z,3.46
2023-01-23T17:38:42.300Z,2.72
2023-01-23T17:43:50.461Z,2.95
2023-01-23T17:48:48.462Z,2.78
2023-01-23T17:53:47.726Z,2.67
2023-01-23T17:58:46.806Z,3.22
2023-01-23T18:03:44.277Z,3.14
2023-01-23T18:08:44.977Z,3.13
2023-01-23T18:13:49.198Z,3.40
2023-01-23T18:18:57.639Z,3.12
2023-01-23T18:23:59.834Z,2.90
2023-01-23T18:29:12.360Z,2.99
2023-01-23T18:34:16.679Z,3.36
2023-01-23T18:39:35.589Z,3.57
2023-01-23T18:44:53.988Z,3.51
2023-01-23T18:49:54.305Z,3.49
2023-01-23T18:55:03.515Z,3.54
2023-01-23T19:00:13.197Z,3.67
2023-01-23T19:05:18.644Z,3.84
2023-01-23T19:10:22.235Z,3.56
2023-01-23T19:15:24.924Z,3.10
2023-01-23T19:20:47.563Z,3.04
2023-01-23T19:25:50.368Z,3.29
2023-01-23T19:30:50.346Z,3.78
2023-01-23T19:35:52.944Z,3.31
2023-01-23T19:40:53.684Z,2.81
2023-01-23T19:46:03.145Z,3.20
2023-01-23T19:51:03.945Z,3.58
2023-01-23T19:56:14.058Z,3.25
2023-01-23T20:01:37.605Z,3.35
2023-01-23T20:06:41.528Z,2.96
2023-01-23T20:11:44.978Z,3.32
2023-01-23T20:16:43.936Z,2.84
2023-01-23T20:21:47.533Z,2.83
2023-01-23T20:26:47.109Z,2.32
2023-01-23T20:31:44.656Z,2.42
2023-01-23T20:36:45.840Z,2.45
2023-01-23T20:41:46.485Z,2.65
2023-01-23T20:46:44.586Z,2.44
2023-01-23T20:51:44.828Z,2.04
2023-01-23T20:56:46.143Z,2.56
2023-01-23T21:02:05.218Z,2.60
2023-01-23T21:07:04.337Z,2.64
2023-01-23T21:12:05.743Z,2.96
2023-01-23T21:17:06.862Z,3.42
2023-01-23T21:22:06.237Z,3.02
2023-01-23T21:27:07.557Z,3.13
2023-01-23T21:32:06.201Z,2.95
2023-01-23T21:37:09.546Z,3.01
2023-01-23T21:42:08.791Z,3.01
2023-01-23T21:47:07.562Z,2.80
2023-01-23T21:52:06.607Z,2.57
2023-01-23T21:57:05.812Z,3.05
2023-01-23T22:02:05.654Z,2.69
2023-01-23T22:07:03.623Z,2.83
2023-01-23T22:12:05.417Z,2.95
2023-01-23T22:17:06.462Z,3.19
2023-01-23T22:22:05.408Z,3.11
2023-01-23T22:27:05.410Z,2.89
2023-01-23T22:32:04.685Z,2.90
2023-01-23T22:37:04.877Z,2.84
2023-01-23T22:42:07.214Z,2.89
2023-01-23T22:47:09.080Z,3.01
2023-01-23T22:52:11.100Z,3.09
2023-01-23T22:57:10.476Z,3.28
2023-01-23T23:02:10.525Z,3.17
2023-01-23T23:07:09.991Z,3.46
2023-01-23T23:12:13.664Z,3.47
2023-01-23T23:17:12.815Z,3.37
2023-01-23T23:22:11.373Z,3.04
2023-01-23T23:27:10.146Z,3.35
2023-01-23T23:32:14.696Z,2.97
2023-01-23T23:37:14.873Z,3.09
2023-01-23T23:42:14.731Z,3.13
2023-01-23T23:47:16.005Z,3.20
2023-01-23T23:52:14.172Z,3.39
2023-01-23T23:57:16.760Z,3.37
